sensor_id;sensor_type;location;lat;lon;timestamp;P1;durP1;ratioP1;P2;durP2;ratioP2
37903;SDS011;23738;50.422;18.758;2022-09-09T00:04:30;7.35;;;5.35;;
37903;SDS011;23738;50.422;18.758;2022-09-09T00:07:06;7.90;;;4.42;;
37903;SDS011;23738;50.422;18.758;2022-09-09T00:10:00;5.10;;;4.60;;
37903;SDS011;23738;50.422;18.758;2022-09-09T00:18:29;4.97;;;4.58;;
37903;SDS011;23738;50.422;18.758;2022-09-09T00:21:26;5.95;;;4.42;;
37903;SDS011;23738;50.422;18.758;2022-09-09T00:23:56;6.80;;;4.65;;
37903;SDS011;23738;50.422;18.758;2022-09-09T00:32:09;5.40;;;4.53;;
37903;SDS011;23738;50.422;18.758;2022-09-09T00:34:47;9.58;;;4.47;;
37903;SDS011;23738;50.422;18.758;2022-09-09T00:37:22;4.58;;;4.17;;
37903;SDS011;23738;50.422;18.758;2022-09-09T00:39:51;4.37;;;3.98;;
37903;SDS011;23738;50.422;18.758;2022-09-09T00:42:26;5.12;;;4.45;;
37903;SDS011;23738;50.422;18.758;2022-09-09T00:47:47;5.45;;;5.00;;
37903;SDS011;23738;50.422;18.758;2022-09-09T00:53:16;9.65;;;3.87;;
37903;SDS011;23738;50.422;18.758;2022-09-09T00:56:09;5.47;;;3.58;;
37903;SDS011;23738;50.422;18.758;2022-09-09T00:58:40;4.80;;;4.40;;
37903;SDS011;23738;50.422;18.758;2022-09-09T01:01:11;5.00;;;4.50;;
37903;SDS011;23738;50.422;18.758;2022-09-09T01:03:43;8.95;;;4.12;;
37903;SDS011;23738;50.422;18.758;2022-09-09T01:06:30;5.75;;;5.25;;
37903;SDS011;23738;50.422;18.758;2022-09-09T01:15:04;7.90;;;5.08;;
37903;SDS011;23738;50.422;18.758;2022-09-09T01:18:02;6.17;;;5.72;;
37903;SDS011;23738;50.422;18.758;2022-09-09T01:20:55;3.77;;;3.47;;
37903;SDS011;23738;50.422;18.758;2022-09-09T01:26:45;4.90;;;4.50;;
37903;SDS011;23738;50.422;18.758;2022-09-09T01:29:18;5.60;;;5.10;;
37903;SDS011;23738;50.422;18.758;2022-09-09T01:31:53;5.20;;;4.78;;
37903;SDS011;23738;50.422;18.758;2022-09-09T01:34:23;5.70;;;4.75;;
37903;SDS011;23738;50.422;18.758;2022-09-09T01:37:05;3.50;;;3.20;;
37903;SDS011;23738;50.422;18.758;2022-09-09T01:39:35;5.55;;;4.00;;
37903;SDS011;23738;50.422;18.758;2022-09-09T01:42:03;7.10;;;5.28;;
37903;SDS011;23738;50.422;18.758;2022-09-09T01:44:32;5.70;;;5.20;;
37903;SDS011;23738;50.422;18.758;2022-09-09T01:47:00;5.90;;;5.35;;
37903;SDS011;23738;50.422;18.758;2022-09-09T01:49:25;8.95;;;4.28;;
37903;SDS011;23738;50.422;18.758;2022-09-09T01:51:52;6.22;;;5.03;;
37903;SDS011;23738;50.422;18.758;2022-09-09T01:54:21;5.35;;;4.47;;
37903;SDS011;23738;50.422;18.758;2022-09-09T01:59:38;6.17;;;5.60;;
37903;SDS011;23738;50.422;18.758;2022-09-09T02:02:30;4.33;;;3.98;;
37903;SDS011;23738;50.422;18.758;2022-09-09T02:07:48;7.40;;;6.70;;
37903;SDS011;23738;50.422;18.758;2022-09-09T02:10:23;8.73;;;7.65;;
37903;SDS011;23738;50.422;18.758;2022-09-09T02:13:12;16.50;;;9.55;;
37903;SDS011;23738;50.422;18.758;2022-09-09T02:15:53;8.90;;;7.95;;
37903;SDS011;23738;50.422;18.758;2022-09-09T02:18:34;8.28;;;7.60;;
37903;SDS011;23738;50.422;18.758;2022-09-09T02:21:11;9.45;;;8.65;;
37903;SDS011;23738;50.422;18.758;2022-09-09T02:23:39;11.65;;;10.65;;
37903;SDS011;23738;50.422;18.758;2022-09-09T02:26:08;12.82;;;11.63;;
37903;SDS011;23738;50.422;18.758;2022-09-09T02:28:38;18.42;;;14.13;;
37903;SDS011;23738;50.422;18.758;2022-09-09T02:31:07;24.30;;;13.00;;
37903;SDS011;23738;50.422;18.758;2022-09-09T02:33:35;11.85;;;10.85;;
37903;SDS011;23738;50.422;18.758;2022-09-09T02:38:37;9.55;;;8.85;;
37903;SDS011;23738;50.422;18.758;2022-09-09T02:41:06;10.45;;;9.60;;
37903;SDS011;23738;50.422;18.758;2022-09-09T02:43:33;24.40;;;10.75;;
37903;SDS011;23738;50.422;18.758;2022-09-09T02:54:22;11.60;;;7.90;;
37903;SDS011;23738;50.422;18.758;2022-09-09T02:56:53;9.43;;;8.58;;
37903;SDS011;23738;50.422;18.758;2022-09-09T02:59:21;25.20;;;8.83;;
37903;SDS011;23738;50.422;18.758;2022-09-09T03:01:49;23.90;;;7.90;;
37903;SDS011;23738;50.422;18.758;2022-09-09T03:04:14;8.75;;;6.35;;
37903;SDS011;23738;50.422;18.758;2022-09-09T03:06:40;13.03;;;5.70;;
37903;SDS011;23738;50.422;18.758;2022-09-09T03:09:06;15.10;;;6.03;;
37903;SDS011;23738;50.422;18.758;2022-09-09T03:11:33;14.68;;;6.35;;
37903;SDS011;23738;50.422;18.758;2022-09-09T03:13:58;15.18;;;6.80;;
37903;SDS011;23738;50.422;18.758;2022-09-09T03:16:24;14.83;;;6.45;;
37903;SDS011;23738;50.422;18.758;2022-09-09T03:18:50;6.40;;;5.90;;
37903;SDS011;23738;50.422;18.758;2022-09-09T03:21:15;7.80;;;5.37;;
37903;SDS011;23738;50.422;18.758;2022-09-09T03:23:41;5.60;;;5.10;;
37903;SDS011;23738;50.422;18.758;2022-09-09T03:26:07;7.53;;;6.17;;
37903;SDS011;23738;50.422;18.758;2022-09-09T03:28:33;10.43;;;6.28;;
37903;SDS011;23738;50.422;18.758;2022-09-09T03:31:00;6.60;;;5.58;;
37903;SDS011;23738;50.422;18.758;2022-09-09T03:33:29;5.20;;;4.80;;
37903;SDS011;23738;50.422;18.758;2022-09-09T03:35:56;6.75;;;5.00;;
37903;SDS011;23738;50.422;18.758;2022-09-09T03:38:23;7.97;;;4.58;;
37903;SDS011;23738;50.422;18.758;2022-09-09T03:40:55;14.28;;;5.50;;
37903;SDS011;23738;50.422;18.758;2022-09-09T03:43:25;16.55;;;5.00;;
37903;SDS011;23738;50.422;18.758;2022-09-09T03:45:51;4.83;;;4.47;;
37903;SDS011;23738;50.422;18.758;2022-09-09T03:48:18;30.08;;;4.30;;
37903;SDS011;23738;50.422;18.758;2022-09-09T03:50:45;14.90;;;3.80;;
37903;SDS011;23738;50.422;18.758;2022-09-09T03:53:15;9.25;;;4.33;;
37903;SDS011;23738;50.422;18.758;2022-09-09T03:55:48;17.23;;;5.00;;
37903;SDS011;23738;50.422;18.758;2022-09-09T03:58:18;10.00;;;4.58;;
37903;SDS011;23738;50.422;18.758;2022-09-09T04:00:52;34.48;;;5.35;;
37903;SDS011;23738;50.422;18.758;2022-09-09T04:03:22;28.57;;;6.15;;
37903;SDS011;23738;50.422;18.758;2022-09-09T04:05:50;15.58;;;5.92;;
37903;SDS011;23738;50.422;18.758;2022-09-09T04:08:18;23.67;;;6.62;;
37903;SDS011;23738;50.422;18.758;2022-09-09T04:10:49;11.85;;;6.90;;
37903;SDS011;23738;50.422;18.758;2022-09-09T04:13:16;46.83;;;6.55;;
37903;SDS011;23738;50.422;18.758;2022-09-09T04:15:43;45.48;;;6.90;;
37903;SDS011;23738;50.422;18.758;2022-09-09T04:18:21;30.80;;;6.22;;
37903;SDS011;23738;50.422;18.758;2022-09-09T04:20:48;19.87;;;6.05;;
37903;SDS011;23738;50.422;18.758;2022-09-09T04:23:15;23.22;;;6.47;;
37903;SDS011;23738;50.422;18.758;2022-09-09T04:25:48;41.97;;;6.87;;
37903;SDS011;23738;50.422;18.758;2022-09-09T04:28:16;19.30;;;7.22;;
37903;SDS011;23738;50.422;18.758;2022-09-09T04:30:44;30.70;;;6.80;;
37903;SDS011;23738;50.422;18.758;2022-09-09T04:33:11;22.22;;;7.10;;
37903;SDS011;23738;50.422;18.758;2022-09-09T04:35:38;12.65;;;7.35;;
37903;SDS011;23738;50.422;18.758;2022-09-09T04:38:04;11.85;;;7.20;;
37903;SDS011;23738;50.422;18.758;2022-09-09T04:40:34;8.78;;;7.90;;
37903;SDS011;23738;50.422;18.758;2022-09-09T04:43:01;12.03;;;10.93;;
37903;SDS011;23738;50.422;18.758;2022-09-09T04:45:30;12.40;;;11.20;;
37903;SDS011;23738;50.422;18.758;2022-09-09T04:47:56;18.35;;;10.00;;
37903;SDS011;23738;50.422;18.758;2022-09-09T04:50:22;16.30;;;9.35;;
37903;SDS011;23738;50.422;18.758;2022-09-09T04:52:48;11.78;;;8.83;;
37903;SDS011;23738;50.422;18.758;2022-09-09T04:55:13;9.30;;;8.50;;
37903;SDS011;23738;50.422;18.758;2022-09-09T04:57:39;11.08;;;9.93;;
37903;SDS011;23738;50.422;18.758;2022-09-09T05:00:06;15.15;;;8.70;;
37903;SDS011;23738;50.422;18.758;2022-09-09T05:02:36;8.23;;;7.08;;
37903;SDS011;23738;50.422;18.758;2022-09-09T05:05:05;7.12;;;6.42;;
37903;SDS011;23738;50.422;18.758;2022-09-09T05:07:32;9.08;;;8.28;;
37903;SDS011;23738;50.422;18.758;2022-09-09T05:09:58;8.90;;;8.18;;
37903;SDS011;23738;50.422;18.758;2022-09-09T05:12:24;9.68;;;8.75;;
37903;SDS011;23738;50.422;18.758;2022-09-09T05:14:53;8.78;;;7.08;;
37903;SDS011;23738;50.422;18.758;2022-09-09T05:17:19;7.08;;;6.58;;
37903;SDS011;23738;50.422;18.758;2022-09-09T05:19:45;6.15;;;5.65;;
37903;SDS011;23738;50.422;18.758;2022-09-09T05:22:10;7.40;;;6.90;;
37903;SDS011;23738;50.422;18.758;2022-09-09T05:24:37;7.28;;;6.62;;
37903;SDS011;23738;50.422;18.758;2022-09-09T05:27:04;7.17;;;6.67;;
37903;SDS011;23738;50.422;18.758;2022-09-09T05:29:31;6.20;;;5.72;;
37903;SDS011;23738;50.422;18.758;2022-09-09T05:31:58;5.37;;;4.97;;
37903;SDS011;23738;50.422;18.758;2022-09-09T05:34:25;6.17;;;5.58;;
37903;SDS011;23738;50.422;18.758;2022-09-09T05:36:51;6.05;;;5.53;;
37903;SDS011;23738;50.422;18.758;2022-09-09T05:39:17;6.62;;;5.72;;
37903;SDS011;23738;50.422;18.758;2022-09-09T05:41:43;6.90;;;6.40;;
37903;SDS011;23738;50.422;18.758;2022-09-09T05:44:09;6.42;;;5.47;;
37903;SDS011;23738;50.422;18.758;2022-09-09T05:46:35;4.83;;;4.42;;
37903;SDS011;23738;50.422;18.758;2022-09-09T05:49:01;4.95;;;4.10;;
37903;SDS011;23738;50.422;18.758;2022-09-09T05:51:28;9.23;;;8.43;;
37903;SDS011;23738;50.422;18.758;2022-09-09T05:53:57;5.50;;;5.10;;
37903;SDS011;23738;50.422;18.758;2022-09-09T05:56:24;5.78;;;5.20;;
37903;SDS011;23738;50.422;18.758;2022-09-09T05:58:53;6.12;;;5.62;;
37903;SDS011;23738;50.422;18.758;2022-09-09T06:01:24;5.17;;;4.67;;
37903;SDS011;23738;50.422;18.758;2022-09-09T06:03:52;4.78;;;4.35;;
37903;SDS011;23738;50.422;18.758;2022-09-09T06:06:19;5.05;;;4.55;;
37903;SDS011;23738;50.422;18.758;2022-09-09T06:08:53;5.55;;;5.08;;
37903;SDS011;23738;50.422;18.758;2022-09-09T06:11:26;5.35;;;4.95;;
37903;SDS011;23738;50.422;18.758;2022-09-09T06:13:56;5.50;;;4.80;;
37903;SDS011;23738;50.422;18.758;2022-09-09T06:16:23;4.67;;;4.33;;
37903;SDS011;23738;50.422;18.758;2022-09-09T06:18:56;7.70;;;3.58;;
37903;SDS011;23738;50.422;18.758;2022-09-09T06:21:34;5.03;;;4.55;;
37903;SDS011;23738;50.422;18.758;2022-09-09T06:24:02;7.85;;;5.03;;
37903;SDS011;23738;50.422;18.758;2022-09-09T06:26:29;3.83;;;3.52;;
37903;SDS011;23738;50.422;18.758;2022-09-09T06:29:00;4.08;;;3.77;;
37903;SDS011;23738;50.422;18.758;2022-09-09T06:31:29;3.98;;;3.67;;
37903;SDS011;23738;50.422;18.758;2022-09-09T06:33:59;5.17;;;3.35;;
37903;SDS011;23738;50.422;18.758;2022-09-09T06:36:26;4.80;;;3.62;;
37903;SDS011;23738;50.422;18.758;2022-09-09T06:38:56;5.03;;;3.30;;
37903;SDS011;23738;50.422;18.758;2022-09-09T06:41:24;3.70;;;3.40;;
37903;SDS011;23738;50.422;18.758;2022-09-09T06:43:52;4.92;;;3.30;;
37903;SDS011;23738;50.422;18.758;2022-09-09T06:46:21;3.83;;;3.27;;
37903;SDS011;23738;50.422;18.758;2022-09-09T06:48:56;4.10;;;2.75;;
37903;SDS011;23738;50.422;18.758;2022-09-09T06:51:24;4.17;;;3.52;;
37903;SDS011;23738;50.422;18.758;2022-09-09T06:53:54;6.00;;;3.10;;
37903;SDS011;23738;50.422;18.758;2022-09-09T06:56:23;5.08;;;3.00;;
37903;SDS011;23738;50.422;18.758;2022-09-09T06:58:53;4.80;;;3.50;;
37903;SDS011;23738;50.422;18.758;2022-09-09T07:01:25;4.45;;;3.45;;
37903;SDS011;23738;50.422;18.758;2022-09-09T07:03:52;4.97;;;3.10;;
37903;SDS011;23738;50.422;18.758;2022-09-09T07:06:21;3.10;;;2.80;;
37903;SDS011;23738;50.422;18.758;2022-09-09T07:08:50;3.35;;;3.05;;
37903;SDS011;23738;50.422;18.758;2022-09-09T07:11:18;3.40;;;3.10;;
37903;SDS011;23738;50.422;18.758;2022-09-09T07:13:46;3.77;;;3.02;;
37903;SDS011;23738;50.422;18.758;2022-09-09T07:16:15;4.33;;;2.98;;
37903;SDS011;23738;50.422;18.758;2022-09-09T07:18:43;3.52;;;3.12;;
37903;SDS011;23738;50.422;18.758;2022-09-09T07:21:10;4.72;;;2.95;;
37903;SDS011;23738;50.422;18.758;2022-09-09T07:23:38;4.75;;;2.87;;
37903;SDS011;23738;50.422;18.758;2022-09-09T07:26:07;5.08;;;3.27;;
37903;SDS011;23738;50.422;18.758;2022-09-09T07:28:39;3.67;;;2.65;;
37903;SDS011;23738;50.422;18.758;2022-09-09T07:31:06;3.37;;;2.55;;
37903;SDS011;23738;50.422;18.758;2022-09-09T07:33:38;3.30;;;2.30;;
37903;SDS011;23738;50.422;18.758;2022-09-09T07:36:15;5.33;;;2.45;;
37903;SDS011;23738;50.422;18.758;2022-09-09T07:38:52;3.10;;;2.80;;
37903;SDS011;23738;50.422;18.758;2022-09-09T07:43:55;2.52;;;2.20;;
37903;SDS011;23738;50.422;18.758;2022-09-09T07:46:21;2.95;;;1.87;;
37903;SDS011;23738;50.422;18.758;2022-09-09T07:48:51;2.77;;;1.98;;
37903;SDS011;23738;50.422;18.758;2022-09-09T07:51:22;2.27;;;1.95;;
37903;SDS011;23738;50.422;18.758;2022-09-09T07:53:53;4.28;;;2.30;;
37903;SDS011;23738;50.422;18.758;2022-09-09T07:56:25;3.72;;;2.47;;
37903;SDS011;23738;50.422;18.758;2022-09-09T07:58:52;2.40;;;2.05;;
37903;SDS011;23738;50.422;18.758;2022-09-09T08:01:28;3.42;;;1.95;;
37903;SDS011;23738;50.422;18.758;2022-09-09T08:04:04;3.67;;;2.27;;
37903;SDS011;23738;50.422;18.758;2022-09-09T08:06:37;2.95;;;1.85;;
37903;SDS011;23738;50.422;18.758;2022-09-09T08:09:06;3.47;;;1.85;;
37903;SDS011;23738;50.422;18.758;2022-09-09T08:11:33;4.22;;;2.00;;
37903;SDS011;23738;50.422;18.758;2022-09-09T08:14:01;2.15;;;1.90;;
37903;SDS011;23738;50.422;18.758;2022-09-09T08:16:29;2.15;;;1.70;;
37903;SDS011;23738;50.422;18.758;2022-09-09T08:18:58;3.05;;;1.92;;
37903;SDS011;23738;50.422;18.758;2022-09-09T08:21:28;2.62;;;1.72;;
37903;SDS011;23738;50.422;18.758;2022-09-09T08:23:58;2.35;;;1.50;;
37903;SDS011;23738;50.422;18.758;2022-09-09T08:26:35;2.83;;;1.55;;
37903;SDS011;23738;50.422;18.758;2022-09-09T08:29:02;6.85;;;2.08;;
37903;SDS011;23738;50.422;18.758;2022-09-09T08:31:33;3.85;;;1.80;;
37903;SDS011;23738;50.422;18.758;2022-09-09T08:34:02;3.05;;;1.57;;
37903;SDS011;23738;50.422;18.758;2022-09-09T08:36:37;1.95;;;1.55;;
37903;SDS011;23738;50.422;18.758;2022-09-09T08:39:02;2.45;;;1.50;;
37903;SDS011;23738;50.422;18.758;2022-09-09T08:50:32;4.67;;;1.32;;
37903;SDS011;23738;50.422;18.758;2022-09-09T08:55:44;3.20;;;1.57;;
37903;SDS011;23738;50.422;18.758;2022-09-09T08:58:25;3.15;;;1.40;;
37903;SDS011;23738;50.422;18.758;2022-09-09T09:07:09;6.47;;;1.55;;
37903;SDS011;23738;50.422;18.758;2022-09-09T09:10:16;3.83;;;1.42;;
37903;SDS011;23738;50.422;18.758;2022-09-09T09:12:53;3.40;;;1.42;;
37903;SDS011;23738;50.422;18.758;2022-09-09T09:15:21;2.40;;;1.37;;
37903;SDS011;23738;50.422;18.758;2022-09-09T09:17:50;4.53;;;1.40;;
37903;SDS011;23738;50.422;18.758;2022-09-09T09:20:16;3.33;;;1.40;;
37903;SDS011;23738;50.422;18.758;2022-09-09T09:22:48;2.35;;;1.60;;
37903;SDS011;23738;50.422;18.758;2022-09-09T09:25:26;2.67;;;1.20;;
37903;SDS011;23738;50.422;18.758;2022-09-09T09:27:59;3.58;;;1.17;;
37903;SDS011;23738;50.422;18.758;2022-09-09T09:30:48;4.70;;;1.50;;
37903;SDS011;23738;50.422;18.758;2022-09-09T09:36:20;2.70;;;1.40;;
37903;SDS011;23738;50.422;18.758;2022-09-09T09:41:56;3.83;;;1.65;;
37903;SDS011;23738;50.422;18.758;2022-09-09T09:43:59;2.77;;;1.77;;
37903;SDS011;23738;50.422;18.758;2022-09-09T09:46:26;2.27;;;1.25;;
37903;SDS011;23738;50.422;18.758;2022-09-09T09:48:59;4.08;;;2.00;;
37903;SDS011;23738;50.422;18.758;2022-09-09T09:51:29;3.15;;;1.52;;
37903;SDS011;23738;50.422;18.758;2022-09-09T09:54:14;3.90;;;1.62;;
37903;SDS011;23738;50.422;18.758;2022-09-09T09:56:48;4.58;;;1.60;;
37903;SDS011;23738;50.422;18.758;2022-09-09T10:02:12;4.50;;;1.40;;
37903;SDS011;23738;50.422;18.758;2022-09-09T10:04:48;7.78;;;1.27;;
37903;SDS011;23738;50.422;18.758;2022-09-09T10:07:20;2.98;;;1.20;;
37903;SDS011;23738;50.422;18.758;2022-09-09T10:09:56;2.90;;;1.50;;
37903;SDS011;23738;50.422;18.758;2022-09-09T10:12:33;1.90;;;1.15;;
37903;SDS011;23738;50.422;18.758;2022-09-09T10:15:23;3.95;;;1.60;;
37903;SDS011;23738;50.422;18.758;2022-09-09T10:26:29;2.12;;;1.02;;
37903;SDS011;23738;50.422;18.758;2022-09-09T10:40:49;2.20;;;1.10;;
37903;SDS011;23738;50.422;18.758;2022-09-09T10:49:19;1.98;;;1.12;;
37903;SDS011;23738;50.422;18.758;2022-09-09T10:52:16;1.85;;;1.10;;
37903;SDS011;23738;50.422;18.758;2022-09-09T10:54:55;1.85;;;0.82;;
37903;SDS011;23738;50.422;18.758;2022-09-09T11:00:01;2.05;;;0.70;;
37903;SDS011;23738;50.422;18.758;2022-09-09T11:02:31;2.65;;;0.90;;
37903;SDS011;23738;50.422;18.758;2022-09-09T11:05:16;1.10;;;0.80;;
37903;SDS011;23738;50.422;18.758;2022-09-09T11:10:45;2.90;;;0.85;;
37903;SDS011;23738;50.422;18.758;2022-09-09T11:13:11;2.15;;;0.80;;
37903;SDS011;23738;50.422;18.758;2022-09-09T11:15:53;2.02;;;0.80;;
37903;SDS011;23738;50.422;18.758;2022-09-09T11:18:26;1.00;;;0.60;;
37903;SDS011;23738;50.422;18.758;2022-09-09T11:20:57;5.55;;;1.07;;
37903;SDS011;23738;50.422;18.758;2022-09-09T11:23:26;2.20;;;0.55;;
37903;SDS011;23738;50.422;18.758;2022-09-09T11:26:05;1.30;;;0.68;;
37903;SDS011;23738;50.422;18.758;2022-09-09T11:28:41;1.45;;;0.60;;
37903;SDS011;23738;50.422;18.758;2022-09-09T11:40:04;1.75;;;0.70;;
37903;SDS011;23738;50.422;18.758;2022-09-09T11:42:39;1.57;;;0.50;;
37903;SDS011;23738;50.422;18.758;2022-09-09T11:47:51;0.75;;;0.50;;
37903;SDS011;23738;50.422;18.758;2022-09-09T11:53:02;1.30;;;0.50;;
37903;SDS011;23738;50.422;18.758;2022-09-09T11:55:40;0.98;;;0.60;;
37903;SDS011;23738;50.422;18.758;2022-09-09T12:00:41;2.83;;;0.60;;
37903;SDS011;23738;50.422;18.758;2022-09-09T12:07:02;1.35;;;0.60;;
37903;SDS011;23738;50.422;18.758;2022-09-09T12:08:57;1.05;;;0.50;;
37903;SDS011;23738;50.422;18.758;2022-09-09T12:11:33;1.32;;;0.45;;
37903;SDS011;23738;50.422;18.758;2022-09-09T12:13:59;3.95;;;0.60;;
37903;SDS011;23738;50.422;18.758;2022-09-09T12:16:30;1.07;;;0.42;;
37903;SDS011;23738;50.422;18.758;2022-09-09T12:21:45;1.40;;;0.60;;
37903;SDS011;23738;50.422;18.758;2022-09-09T12:27:07;0.95;;;0.53;;
37903;SDS011;23738;50.422;18.758;2022-09-09T12:29:58;3.55;;;0.60;;
37903;SDS011;23738;50.422;18.758;2022-09-09T12:32:35;1.37;;;0.50;;
37903;SDS011;23738;50.422;18.758;2022-09-09T12:35:04;0.80;;;0.50;;
37903;SDS011;23738;50.422;18.758;2022-09-09T12:37:49;2.47;;;0.50;;
37903;SDS011;23738;50.422;18.758;2022-09-09T12:40:25;1.47;;;0.50;;
37903;SDS011;23738;50.422;18.758;2022-09-09T12:42:53;1.57;;;0.50;;
37903;SDS011;23738;50.422;18.758;2022-09-09T12:45:21;2.05;;;0.50;;
37903;SDS011;23738;50.422;18.758;2022-09-09T12:47:57;1.12;;;0.40;;
37903;SDS011;23738;50.422;18.758;2022-09-09T12:50:32;1.12;;;0.53;;
37903;SDS011;23738;50.422;18.758;2022-09-09T12:53:08;1.72;;;0.45;;
37903;SDS011;23738;50.422;18.758;2022-09-09T12:55:58;3.27;;;1.00;;
37903;SDS011;23738;50.422;18.758;2022-09-09T12:58:30;1.95;;;0.40;;
37903;SDS011;23738;50.422;18.758;2022-09-09T13:01:00;0.90;;;0.40;;
37903;SDS011;23738;50.422;18.758;2022-09-09T13:03:30;1.45;;;0.42;;
37903;SDS011;23738;50.422;18.758;2022-09-09T13:05:58;1.22;;;0.50;;
37903;SDS011;23738;50.422;18.758;2022-09-09T13:08:37;1.90;;;0.50;;
37903;SDS011;23738;50.422;18.758;2022-09-09T13:11:06;1.17;;;0.68;;
37903;SDS011;23738;50.422;18.758;2022-09-09T13:13:38;1.70;;;0.60;;
37903;SDS011;23738;50.422;18.758;2022-09-09T13:16:15;2.58;;;0.60;;
37903;SDS011;23738;50.422;18.758;2022-09-09T13:18:50;3.20;;;0.60;;
37903;SDS011;23738;50.422;18.758;2022-09-09T13:21:16;1.77;;;0.50;;
37903;SDS011;23738;50.422;18.758;2022-09-09T13:23:47;3.02;;;0.50;;
37903;SDS011;23738;50.422;18.758;2022-09-09T13:26:23;1.07;;;0.45;;
37903;SDS011;23738;50.422;18.758;2022-09-09T13:28:51;2.05;;;0.40;;
37903;SDS011;23738;50.422;18.758;2022-09-09T13:33:55;1.07;;;0.40;;
37903;SDS011;23738;50.422;18.758;2022-09-09T13:36:27;0.70;;;0.50;;
37903;SDS011;23738;50.422;18.758;2022-09-09T13:38:57;1.62;;;0.60;;
37903;SDS011;23738;50.422;18.758;2022-09-09T13:41:26;2.45;;;0.45;;
37903;SDS011;23738;50.422;18.758;2022-09-09T13:44:01;1.42;;;0.57;;
37903;SDS011;23738;50.422;18.758;2022-09-09T13:49:00;1.60;;;0.50;;
37903;SDS011;23738;50.422;18.758;2022-09-09T13:51:44;2.17;;;0.50;;
37903;SDS011;23738;50.422;18.758;2022-09-09T13:54:15;0.93;;;0.47;;
37903;SDS011;23738;50.422;18.758;2022-09-09T13:56:43;1.57;;;0.57;;
37903;SDS011;23738;50.422;18.758;2022-09-09T13:59:14;1.50;;;0.50;;
37903;SDS011;23738;50.422;18.758;2022-09-09T14:01:40;0.85;;;0.50;;
37903;SDS011;23738;50.422;18.758;2022-09-09T14:04:06;1.60;;;0.50;;
37903;SDS011;23738;50.422;18.758;2022-09-09T14:06:36;1.55;;;0.60;;
37903;SDS011;23738;50.422;18.758;2022-09-09T14:09:09;2.20;;;0.60;;
37903;SDS011;23738;50.422;18.758;2022-09-09T14:11:33;1.60;;;0.60;;
37903;SDS011;23738;50.422;18.758;2022-09-09T14:13:59;0.98;;;0.50;;
37903;SDS011;23738;50.422;18.758;2022-09-09T14:16:26;1.87;;;0.65;;
37903;SDS011;23738;50.422;18.758;2022-09-09T14:18:53;1.45;;;0.60;;
37903;SDS011;23738;50.422;18.758;2022-09-09T14:21:21;1.62;;;0.60;;
37903;SDS011;23738;50.422;18.758;2022-09-09T14:23:47;0.72;;;0.37;;
37903;SDS011;23738;50.422;18.758;2022-09-09T14:26:13;2.08;;;0.70;;
37903;SDS011;23738;50.422;18.758;2022-09-09T14:28:39;1.40;;;0.70;;
37903;SDS011;23738;50.422;18.758;2022-09-09T14:31:05;1.45;;;0.90;;
37903;SDS011;23738;50.422;18.758;2022-09-09T14:33:32;1.50;;;0.60;;
37903;SDS011;23738;50.422;18.758;2022-09-09T14:35:59;1.85;;;0.60;;
37903;SDS011;23738;50.422;18.758;2022-09-09T14:38:28;1.27;;;0.45;;
37903;SDS011;23738;50.422;18.758;2022-09-09T14:40:58;2.12;;;0.53;;
37903;SDS011;23738;50.422;18.758;2022-09-09T14:43:28;2.95;;;0.50;;
37903;SDS011;23738;50.422;18.758;2022-09-09T14:45:56;2.80;;;0.60;;
37903;SDS011;23738;50.422;18.758;2022-09-09T14:48:22;2.98;;;0.70;;
37903;SDS011;23738;50.422;18.758;2022-09-09T14:50:48;1.27;;;0.53;;
37903;SDS011;23738;50.422;18.758;2022-09-09T14:53:16;2.02;;;0.68;;
37903;SDS011;23738;50.422;18.758;2022-09-09T14:55:41;1.10;;;0.53;;
37903;SDS011;23738;50.422;18.758;2022-09-09T14:58:07;1.82;;;0.60;;
37903;SDS011;23738;50.422;18.758;2022-09-09T15:00:33;4.42;;;0.60;;
37903;SDS011;23738;50.422;18.758;2022-09-09T15:02:59;0.85;;;0.57;;
37903;SDS011;23738;50.422;18.758;2022-09-09T15:05:25;1.87;;;0.78;;
37903;SDS011;23738;50.422;18.758;2022-09-09T15:07:50;2.35;;;0.50;;
37903;SDS011;23738;50.422;18.758;2022-09-09T15:10:16;1.40;;;0.60;;
37903;SDS011;23738;50.422;18.758;2022-09-09T15:12:42;1.20;;;0.60;;
37903;SDS011;23738;50.422;18.758;2022-09-09T15:15:09;1.30;;;0.40;;
37903;SDS011;23738;50.422;18.758;2022-09-09T15:17:35;2.15;;;0.65;;
37903;SDS011;23738;50.422;18.758;2022-09-09T15:20:02;1.82;;;0.75;;
37903;SDS011;23738;50.422;18.758;2022-09-09T15:22:30;1.37;;;0.60;;
37903;SDS011;23738;50.422;18.758;2022-09-09T15:24:57;3.70;;;0.90;;
37903;SDS011;23738;50.422;18.758;2022-09-09T15:27:23;1.75;;;0.72;;
37903;SDS011;23738;50.422;18.758;2022-09-09T15:29:49;2.20;;;0.70;;
37903;SDS011;23738;50.422;18.758;2022-09-09T15:32:16;2.12;;;0.80;;
37903;SDS011;23738;50.422;18.758;2022-09-09T15:34:43;1.55;;;0.75;;
37903;SDS011;23738;50.422;18.758;2022-09-09T15:37:11;1.60;;;0.60;;
37903;SDS011;23738;50.422;18.758;2022-09-09T15:39:40;1.37;;;0.62;;
37903;SDS011;23738;50.422;18.758;2022-09-09T15:42:06;1.57;;;0.60;;
37903;SDS011;23738;50.422;18.758;2022-09-09T15:44:44;1.52;;;0.60;;
37903;SDS011;23738;50.422;18.758;2022-09-09T15:47:07;1.87;;;0.60;;
37903;SDS011;23738;50.422;18.758;2022-09-09T15:49:37;1.50;;;0.78;;
37903;SDS011;23738;50.422;18.758;2022-09-09T15:52:03;2.37;;;0.82;;
37903;SDS011;23738;50.422;18.758;2022-09-09T15:54:33;2.08;;;0.75;;
37903;SDS011;23738;50.422;18.758;2022-09-09T15:57:02;3.20;;;1.00;;
37903;SDS011;23738;50.422;18.758;2022-09-09T15:59:30;1.72;;;0.90;;
37903;SDS011;23738;50.422;18.758;2022-09-09T16:01:57;2.17;;;0.80;;
37903;SDS011;23738;50.422;18.758;2022-09-09T16:04:25;3.92;;;0.90;;
37903;SDS011;23738;50.422;18.758;2022-09-09T16:06:59;3.47;;;1.00;;
37903;SDS011;23738;50.422;18.758;2022-09-09T16:09:30;2.55;;;1.20;;
37903;SDS011;23738;50.422;18.758;2022-09-09T16:11:57;1.70;;;0.80;;
37903;SDS011;23738;50.422;18.758;2022-09-09T16:14:26;2.87;;;0.90;;
37903;SDS011;23738;50.422;18.758;2022-09-09T16:16:52;1.85;;;0.90;;
37903;SDS011;23738;50.422;18.758;2022-09-09T16:19:18;1.70;;;0.82;;
37903;SDS011;23738;50.422;18.758;2022-09-09T16:21:45;1.52;;;0.80;;
37903;SDS011;23738;50.422;18.758;2022-09-09T16:24:14;1.98;;;0.90;;
37903;SDS011;23738;50.422;18.758;2022-09-09T16:26:50;0.82;;;0.68;;
37903;SDS011;23738;50.422;18.758;2022-09-09T16:29:15;2.42;;;1.10;;
37903;SDS011;23738;50.422;18.758;2022-09-09T16:31:42;1.70;;;0.80;;
37903;SDS011;23738;50.422;18.758;2022-09-09T16:34:10;2.20;;;1.10;;
37903;SDS011;23738;50.422;18.758;2022-09-09T16:36:36;1.67;;;0.98;;
37903;SDS011;23738;50.422;18.758;2022-09-09T16:39:06;1.90;;;1.02;;
37903;SDS011;23738;50.422;18.758;2022-09-09T16:41:36;2.70;;;0.93;;
37903;SDS011;23738;50.422;18.758;2022-09-09T16:44:04;6.35;;;2.30;;
37903;SDS011;23738;50.422;18.758;2022-09-09T16:46:36;8.15;;;1.70;;
37903;SDS011;23738;50.422;18.758;2022-09-09T16:49:05;8.23;;;4.70;;
37903;SDS011;23738;50.422;18.758;2022-09-09T16:51:35;7.17;;;3.20;;
37903;SDS011;23738;50.422;18.758;2022-09-09T16:54:04;4.25;;;3.00;;
37903;SDS011;23738;50.422;18.758;2022-09-09T16:56:33;2.80;;;1.50;;
37903;SDS011;23738;50.422;18.758;2022-09-09T16:59:07;3.85;;;1.80;;
37903;SDS011;23738;50.422;18.758;2022-09-09T17:01:45;5.03;;;2.00;;
37903;SDS011;23738;50.422;18.758;2022-09-09T17:04:15;4.53;;;2.62;;
37903;SDS011;23738;50.422;18.758;2022-09-09T17:06:49;8.53;;;5.62;;
37903;SDS011;23738;50.422;18.758;2022-09-09T17:09:18;8.50;;;5.28;;
37903;SDS011;23738;50.422;18.758;2022-09-09T17:11:45;12.37;;;7.78;;